createdAt,value
2022-08-20T00:00:21.908Z,100429.78
2022-08-20T00:02:58.211Z,100429.78
2022-08-20T00:05:33.939Z,100432.88
2022-08-20T00:08:04.229Z,100428.72
2022-08-20T00:10:33.339Z,100440.78
2022-08-20T00:13:01.598Z,100435.81
2022-08-20T00:15:33.304Z,100426.53
2022-08-20T00:18:01.224Z,100433.00
2022-08-20T00:20:30.625Z,100430.56
2022-08-20T00:22:58.284Z,100445.78
2022-08-20T00:25:26.591Z,100437.25
2022-08-20T00:27:53.447Z,100441.09
2022-08-20T00:30:20.874Z,100439.84
2022-08-20T00:32:54.932Z,100442.16
2022-08-20T00:35:24.128Z,100440.50
2022-08-20T00:37:51.478Z,100440.00
2022-08-20T00:40:24.682Z,100437.19
2022-08-20T00:42:55.587Z,100437.53
2022-08-20T00:45:22.536Z,100436.72
2022-08-20T00:47:54.953Z,100437.09
2022-08-20T00:50:29.107Z,100443.44
2022-08-20T00:52:56.287Z,100440.53
2022-08-20T00:55:29.633Z,100433.16
2022-08-20T00:58:02.116Z,100438.28
2022-08-20T01:00:40.089Z,100433.81
2022-08-20T01:03:10.055Z,100444.97
2022-08-20T01:05:39.012Z,100442.50
2022-08-20T01:08:06.199Z,100434.41
2022-08-20T01:10:38.510Z,100441.69
2022-08-20T01:13:11.827Z,100456.97
2022-08-20T01:15:43.419Z,100439.94
2022-08-20T01:18:15.650Z,100441.41
2022-08-20T01:20:59.144Z,100446.94
2022-08-20T01:23:55.138Z,100440.78
2022-08-20T01:26:31.681Z,100455.53
2022-08-20T01:29:11.009Z,100442.53
2022-08-20T01:31:40.112Z,100449.66
2022-08-20T01:34:10.530Z,100464.94
2022-08-20T01:36:44.235Z,100455.94
2022-08-20T01:39:16.119Z,100451.03
2022-08-20T01:41:46.052Z,100456.59
2022-08-20T01:44:17.000Z,100451.69
2022-08-20T01:46:48.122Z,100472.13
2022-08-20T01:49:24.113Z,100449.84
2022-08-20T01:51:54.943Z,100449.78
2022-08-20T01:54:22.531Z,100447.22
2022-08-20T01:57:04.504Z,100455.69
2022-08-20T01:59:32.045Z,100451.16
2022-08-20T02:02:00.251Z,100447.97
2022-08-20T02:04:27.514Z,100447.88
2022-08-20T02:06:58.282Z,100451.50
2022-08-20T02:09:32.914Z,100454.06
2022-08-20T02:12:01.162Z,100464.88
2022-08-20T02:14:28.363Z,100459.25
2022-08-20T02:16:58.687Z,100460.06
2022-08-20T02:19:41.938Z,100460.97
2022-08-20T02:22:20.448Z,100463.25
2022-08-20T02:24:48.618Z,100472.78
2022-08-20T02:27:16.093Z,100476.41
2022-08-20T02:29:43.946Z,100456.25
2022-08-20T02:32:24.961Z,100461.88
2022-08-20T02:34:58.120Z,100473.53
2022-08-20T02:37:24.887Z,100464.59
2022-08-20T02:39:51.776Z,100471.06
2022-08-20T02:42:18.733Z,100468.69
2022-08-20T02:44:45.539Z,100476.34
2022-08-20T02:47:12.343Z,100477.44
2022-08-20T02:49:39.305Z,100474.97
2022-08-20T02:52:06.183Z,100480.59
2022-08-20T02:54:33.033Z,100476.13
2022-08-20T02:56:59.938Z,100483.06
2022-08-20T02:59:26.712Z,100481.50
2022-08-20T03:02:00.554Z,100473.94
2022-08-20T03:04:31.252Z,100467.59
2022-08-20T03:06:59.151Z,100472.13
2022-08-20T03:09:26.179Z,100478.72
2022-08-20T03:11:53.018Z,100477.16
2022-08-20T03:14:20.124Z,100477.25
2022-08-20T03:16:46.946Z,100475.59
2022-08-20T03:19:13.943Z,100478.88
2022-08-20T03:21:41.173Z,100488.59
2022-08-20T03:24:08.256Z,100478.16
2022-08-20T03:26:34.988Z,100482.59
2022-08-20T03:29:02.156Z,100487.22
2022-08-20T03:31:29.878Z,100484.94
2022-08-20T03:33:56.764Z,100477.78
2022-08-20T03:36:28.432Z,100489.94
2022-08-20T03:39:01.259Z,100477.47
2022-08-20T03:41:28.784Z,100483.22
2022-08-20T03:43:55.955Z,100489.84
2022-08-20T03:46:23.499Z,100477.38
2022-08-20T03:49:00.091Z,100483.09
2022-08-20T03:51:31.794Z,100480.38
2022-08-20T03:54:20.662Z,100493.75
2022-08-20T03:56:47.892Z,100478.34
2022-08-20T03:59:14.621Z,100491.81
2022-08-20T04:01:44.742Z,100487.66
2022-08-20T04:04:14.376Z,100495.09
2022-08-20T04:06:42.535Z,100486.25
2022-08-20T04:09:11.706Z,100487.88
2022-08-20T04:11:39.661Z,100492.16
2022-08-20T04:14:06.676Z,100497.84
2022-08-20T04:16:34.103Z,100493.63
2022-08-20T04:19:03.688Z,100496.34
2022-08-20T04:21:33.304Z,100511.34
2022-08-20T04:24:00.891Z,100494.72
2022-08-20T04:26:27.976Z,100497.84
2022-08-20T04:28:55.772Z,100497.34
2022-08-20T04:31:33.600Z,100492.75
2022-08-20T04:34:02.318Z,100480.94
2022-08-20T04:36:29.904Z,100485.22
2022-08-20T04:38:56.801Z,100487.75
2022-08-20T04:41:24.506Z,100495.84
2022-08-20T04:43:56.050Z,100483.59
2022-08-20T04:46:27.988Z,100484.09
2022-08-20T04:48:55.790Z,100482.59
2022-08-20T04:51:22.849Z,100498.63
2022-08-20T04:53:53.208Z,100493.09
2022-08-20T04:56:24.039Z,100493.84
2022-08-20T04:58:52.639Z,100506.72
2022-08-20T05:01:20.167Z,100494.41
2022-08-20T05:03:49.876Z,100482.59
2022-08-20T05:06:18.095Z,100492.16
2022-08-20T05:08:45.521Z,100483.41
2022-08-20T05:11:33.945Z,100486.81
2022-08-20T05:14:01.455Z,100500.59
2022-08-20T05:16:28.335Z,100494.13
2022-08-20T05:18:55.160Z,100486.44
2022-08-20T05:21:22.183Z,100499.03
2022-08-20T05:23:49.537Z,100493.50
2022-08-20T05:26:17.206Z,100527.41
2022-08-20T05:28:57.570Z,100509.28
2022-08-20T05:31:32.066Z,100489.81
2022-08-20T05:34:11.033Z,100522.91
2022-08-20T05:36:49.923Z,100510.53
2022-08-20T05:39:18.920Z,100516.88
2022-08-20T05:41:45.873Z,100511.09
2022-08-20T05:44:15.612Z,100513.47
2022-08-20T05:46:43.721Z,100500.25
2022-08-20T05:49:13.688Z,100521.25
2022-08-20T05:51:40.852Z,100508.16
2022-08-20T05:54:07.830Z,100520.19
2022-08-20T05:56:34.978Z,100515.81
2022-08-20T05:59:04.248Z,100530.47
2022-08-20T06:01:36.257Z,100532.47
2022-08-20T06:04:22.446Z,100527.19
2022-08-20T06:06:51.966Z,100520.78
2022-08-20T06:09:30.966Z,100514.69
2022-08-20T06:12:04.562Z,100504.28
2022-08-20T06:14:32.806Z,100518.09
2022-08-20T06:17:13.225Z,100509.59
2022-08-20T06:19:44.210Z,100518.16
2022-08-20T06:22:20.812Z,100515.03
2022-08-20T06:24:55.156Z,100525.78
2022-08-20T06:27:22.601Z,100507.53
2022-08-20T06:29:50.608Z,100505.69
2022-08-20T06:32:18.374Z,100530.91
2022-08-20T06:34:50.535Z,100516.47
2022-08-20T06:37:21.524Z,100509.81
2022-08-20T06:39:48.424Z,100518.34
2022-08-20T06:42:15.445Z,100507.22
2022-08-20T06:44:51.046Z,100525.16
2022-08-20T06:47:19.937Z,100510.06
2022-08-20T06:49:47.705Z,100496.56
2022-08-20T06:52:17.292Z,100491.88
2022-08-20T06:54:44.752Z,100495.34
2022-08-20T06:57:11.637Z,100491.94
2022-08-20T06:59:38.577Z,100504.34
2022-08-20T07:02:05.907Z,100484.03
2022-08-20T07:04:32.786Z,100487.06
2022-08-20T07:06:59.639Z,100475.22
2022-08-20T07:09:28.402Z,100470.09
2022-08-20T07:11:56.209Z,100474.25
2022-08-20T07:14:23.093Z,100472.84
2022-08-20T07:16:50.316Z,100476.88
2022-08-20T07:19:17.821Z,100471.53
2022-08-20T07:21:44.827Z,100481.47
2022-08-20T07:24:12.680Z,100469.25
2022-08-20T07:26:39.649Z,100481.75
2022-08-20T07:29:06.562Z,100475.38
2022-08-20T07:31:52.058Z,100472.03
2022-08-20T07:34:20.078Z,100470.47
2022-08-20T07:36:48.885Z,100461.91
2022-08-20T07:39:15.769Z,100464.22
2022-08-20T07:41:43.931Z,100452.47
2022-08-20T07:44:28.506Z,100461.56
2022-08-20T07:47:03.180Z,100459.94
2022-08-20T07:49:30.166Z,100467.19
2022-08-20T07:51:56.995Z,100499.72
2022-08-20T07:54:24.387Z,100478.47
2022-08-20T07:56:54.134Z,100487.59
2022-08-20T07:59:21.577Z,100476.66
2022-08-20T08:01:48.418Z,100475.34
2022-08-20T08:04:16.196Z,100475.28
2022-08-20T08:06:45.388Z,100496.03
2022-08-20T08:09:14.790Z,100487.09
2022-08-20T08:11:50.349Z,100473.09
2022-08-20T08:14:23.687Z,100493.59
2022-08-20T08:16:51.684Z,100485.34
2022-08-20T08:19:21.611Z,100498.25
2022-08-20T08:21:49.597Z,100497.97
2022-08-20T08:24:22.502Z,100492.66
2022-08-20T08:26:53.713Z,100491.44
2022-08-20T08:29:20.524Z,100501.53
2022-08-20T08:31:47.366Z,100492.53
2022-08-20T08:34:17.000Z,100490.47
2022-08-20T08:36:44.580Z,100510.63
2022-08-20T08:39:11.420Z,100496.34
2022-08-20T08:41:47.439Z,100512.13
2022-08-20T08:44:39.626Z,100503.94
2022-08-20T08:47:21.077Z,100509.59
2022-08-20T08:49:48.700Z,100516.09
2022-08-20T08:52:22.944Z,100524.03
2022-08-20T08:54:55.010Z,100512.69
2022-08-20T08:57:22.134Z,100509.84
2022-08-20T09:00:04.369Z,100505.00
2022-08-20T09:02:36.462Z,100502.16
2022-08-20T09:05:13.506Z,100517.66
2022-08-20T09:07:53.141Z,100508.00
2022-08-20T09:10:23.251Z,100520.47
2022-08-20T09:12:52.142Z,100515.13
2022-08-20T09:15:19.579Z,100518.38
2022-08-20T09:17:46.339Z,100504.22
2022-08-20T09:20:13.377Z,100534.19
2022-08-20T09:22:41.010Z,100520.97
2022-08-20T09:25:08.567Z,100519.66
2022-08-20T09:27:35.346Z,100518.00
2022-08-20T09:30:03.308Z,100513.84
2022-08-20T09:32:30.276Z,100515.06
2022-08-20T09:34:57.147Z,100512.97
2022-08-20T09:37:27.999Z,100509.34
2022-08-20T09:39:55.374Z,100513.75
2022-08-20T09:42:36.187Z,100509.59
2022-08-20T09:45:10.971Z,100513.47
2022-08-20T09:47:55.025Z,100511.00
2022-08-20T09:50:28.498Z,100520.31
2022-08-20T09:52:57.708Z,100510.94
2022-08-20T09:55:27.103Z,100519.00
2022-08-20T09:57:54.344Z,100502.56
2022-08-20T10:00:21.438Z,100502.63
2022-08-20T10:02:48.536Z,100490.38
2022-08-20T10:05:15.606Z,100477.81
2022-08-20T10:07:43.071Z,100469.19
2022-08-20T10:10:12.504Z,100467.09
2022-08-20T10:12:41.483Z,100459.38
2022-08-20T10:15:09.401Z,100456.88
2022-08-20T10:17:41.410Z,100455.97
2022-08-20T10:20:10.445Z,100478.13
2022-08-20T10:22:37.667Z,100480.50
2022-08-20T10:25:05.802Z,100492.06
2022-08-20T10:27:33.437Z,100499.66
2022-08-20T10:30:00.391Z,100486.66
2022-08-20T10:32:27.247Z,100495.06
2022-08-20T10:34:54.090Z,100510.34
2022-08-20T10:37:23.807Z,100503.06
2022-08-20T10:39:50.619Z,100492.28
2022-08-20T10:42:17.749Z,100496.84
2022-08-20T10:44:44.610Z,100490.91
2022-08-20T10:47:22.276Z,100494.09
2022-08-20T10:49:51.630Z,100486.28
2022-08-20T10:52:19.026Z,100489.25
2022-08-20T10:54:46.444Z,100485.41
2022-08-20T10:57:20.196Z,100483.81
2022-08-20T10:59:49.368Z,100489.09
2022-08-20T11:02:18.618Z,100488.81
2022-08-20T11:04:45.991Z,100483.25
2022-08-20T11:07:16.297Z,100482.56
2022-08-20T11:09:43.831Z,100481.53
2022-08-20T11:12:10.720Z,100465.16
2022-08-20T11:14:37.812Z,100481.84
2022-08-20T11:17:05.430Z,100474.13
2022-08-20T11:19:32.784Z,100460.63
2022-08-20T11:21:59.768Z,100463.22
2022-08-20T11:24:26.653Z,100467.47
2022-08-20T11:26:53.765Z,100456.44
2022-08-20T11:29:22.726Z,100452.09
2022-08-20T11:31:49.608Z,100446.56
2022-08-20T11:34:16.514Z,100434.81
2022-08-20T11:36:44.959Z,100440.13
2022-08-20T11:39:12.315Z,100437.53
2022-08-20T11:41:39.437Z,100435.84
2022-08-20T11:44:20.756Z,100435.09
2022-08-20T11:46:49.054Z,100435.16
2022-08-20T11:49:15.893Z,100413.44
2022-08-20T11:51:49.559Z,100415.50
2022-08-20T11:54:16.834Z,100413.69
2022-08-20T11:56:45.877Z,100419.41
2022-08-20T11:59:13.259Z,100421.84
2022-08-20T12:01:40.188Z,100418.09
2022-08-20T12:04:07.158Z,100411.13
2022-08-20T12:06:41.643Z,100409.22
2022-08-20T12:09:08.434Z,100407.69
2022-08-20T12:11:35.250Z,100412.53
2022-08-20T12:14:04.379Z,100404.81
2022-08-20T12:16:31.367Z,100405.69
2022-08-20T12:18:58.215Z,100403.00
2022-08-20T12:21:25.108Z,100397.03
2022-08-20T12:23:51.851Z,100407.06
2022-08-20T12:26:18.740Z,100385.72
2022-08-20T12:28:45.677Z,100389.16
2022-08-20T12:31:12.852Z,100381.19
2022-08-20T12:33:39.654Z,100395.09
2022-08-20T12:36:06.710Z,100393.41
2022-08-20T12:38:33.659Z,100386.50
2022-08-20T12:41:00.870Z,100386.06
2022-08-20T12:43:27.782Z,100362.09
2022-08-20T12:45:54.598Z,100368.94
2022-08-20T12:48:21.479Z,100383.84
2022-08-20T12:50:50.095Z,100359.16
2022-08-20T12:53:17.080Z,100362.34
2022-08-20T12:55:44.127Z,100368.88
2022-08-20T12:58:11.025Z,100374.88
2022-08-20T13:00:46.556Z,100364.81
2022-08-20T13:03:18.207Z,100355.81
2022-08-20T13:05:45.469Z,100356.66
2022-08-20T13:08:12.928Z,100343.31
2022-08-20T13:10:44.619Z,100346.59
2022-08-20T13:13:20.995Z,100350.34
2022-08-20T13:15:51.495Z,100353.47
2022-08-20T13:18:18.427Z,100361.59
2022-08-20T13:20:46.100Z,100345.06
2022-08-20T13:23:12.992Z,100340.69
2022-08-20T13:25:39.903Z,100347.63
2022-08-20T13:28:06.971Z,100350.06
2022-08-20T13:30:36.883Z,100336.75
2022-08-20T13:33:03.711Z,100338.69
2022-08-20T13:35:30.708Z,100339.09
2022-08-20T13:37:57.565Z,100336.63
2022-08-20T13:40:24.523Z,100335.53
2022-08-20T13:42:51.479Z,100336.75
2022-08-20T13:45:18.411Z,100344.03
2022-08-20T13:47:45.193Z,100347.63
2022-08-20T13:50:22.039Z,100340.25
2022-08-20T13:52:48.950Z,100328.50
2022-08-20T13:55:18.891Z,100322.91
2022-08-20T13:57:46.444Z,100347.63
2022-08-20T14:00:18.723Z,100324.84
2022-08-20T14:02:45.942Z,100316.69
2022-08-20T14:05:16.107Z,100322.03
2022-08-20T14:07:49.941Z,100317.19
2022-08-20T14:10:20.902Z,100319.19
2022-08-20T14:12:48.354Z,100320.34
2022-08-20T14:15:16.104Z,100313.84
2022-08-20T14:17:50.058Z,100321.91
2022-08-20T14:20:19.823Z,100304.91
2022-08-20T14:22:46.760Z,100309.69
2022-08-20T14:25:17.549Z,100306.47
2022-08-20T14:27:44.701Z,100304.09
2022-08-20T14:30:15.224Z,100313.91
2022-08-20T14:32:45.419Z,100296.50
2022-08-20T14:35:13.066Z,100291.25
2022-08-20T14:37:43.294Z,100280.75
2022-08-20T14:40:14.269Z,100308.31
2022-08-20T14:42:41.851Z,100299.75
2022-08-20T14:45:12.828Z,100287.59
2022-08-20T14:47:50.735Z,100313.91
2022-08-20T14:50:32.264Z,100291.25
2022-08-20T14:53:00.113Z,100307.88
2022-08-20T14:55:34.871Z,100282.00
2022-08-20T14:58:01.796Z,100282.44
2022-08-20T15:00:31.335Z,100282.84
2022-08-20T15:02:58.421Z,100279.22
2022-08-20T15:05:26.107Z,100283.59
2022-08-20T15:07:54.383Z,100284.03
2022-08-20T15:10:28.541Z,100283.28
2022-08-20T15:12:55.670Z,100283.31
2022-08-20T15:15:23.661Z,100269.94
2022-08-20T15:17:55.184Z,100278.50
2022-08-20T15:20:25.620Z,100271.22
2022-08-20T15:22:53.200Z,100288.22
2022-08-20T15:25:23.799Z,100272.03
2022-08-20T15:27:50.909Z,100270.44
2022-08-20T15:30:20.846Z,100272.00
2022-08-20T15:32:52.727Z,100263.09
2022-08-20T15:35:26.305Z,100276.44
2022-08-20T15:37:55.595Z,100275.22
2022-08-20T15:40:28.267Z,100254.94
2022-08-20T15:42:57.367Z,100270.31
2022-08-20T15:45:27.493Z,100265.44
2022-08-20T15:48:02.948Z,100268.28
2022-08-20T15:50:47.830Z,100269.88
2022-08-20T15:53:28.342Z,100263.78
2022-08-20T15:56:07.211Z,100262.16
2022-08-20T15:58:58.943Z,100274.31
2022-08-20T16:01:28.673Z,100267.84
2022-08-20T16:03:58.668Z,100269.31
2022-08-20T16:06:30.555Z,100267.78
2022-08-20T16:09:11.854Z,100278.66
2022-08-20T16:12:00.283Z,100278.59
2022-08-20T16:14:30.338Z,100274.09
2022-08-20T16:17:06.012Z,100273.31
2022-08-20T16:19:45.141Z,100271.25
2022-08-20T16:22:15.028Z,100270.00
2022-08-20T16:24:41.843Z,100270.03
2022-08-20T16:27:24.284Z,100289.47
2022-08-20T16:30:05.478Z,100277.38
2022-08-20T16:32:44.958Z,100262.00
2022-08-20T16:35:35.616Z,100270.09
2022-08-20T16:38:06.818Z,100275.31
2022-08-20T16:41:13.652Z,100285.81
2022-08-20T16:43:51.953Z,100276.53
2022-08-20T16:46:22.251Z,100270.00
2022-08-20T16:48:56.184Z,100280.47
2022-08-20T16:51:36.371Z,100271.53
2022-08-20T16:54:04.135Z,100299.00
2022-08-20T16:56:37.129Z,100282.84
2022-08-20T16:59:12.828Z,100289.31
2022-08-20T17:02:10.826Z,100290.13
2022-08-20T17:04:58.769Z,100286.91
2022-08-20T17:08:03.704Z,100300.63
2022-08-20T17:10:57.649Z,100298.22
2022-08-20T17:13:31.737Z,100293.34
2022-08-20T17:16:02.889Z,100300.63
2022-08-20T17:18:33.385Z,100299.00
2022-08-20T17:21:03.521Z,100298.22
2022-08-20T17:23:49.158Z,100285.28
2022-08-20T17:26:41.849Z,100297.78
2022-08-20T17:29:23.959Z,100294.97
2022-08-20T17:31:59.703Z,100291.72
2022-08-20T17:34:46.365Z,100292.91
2022-08-20T17:37:28.335Z,100297.38
2022-08-20T17:40:28.482Z,100290.84
2022-08-20T17:43:01.577Z,100293.66
2022-08-20T17:45:37.785Z,100282.34
2022-08-20T17:48:08.591Z,100283.56
2022-08-20T17:50:40.041Z,100294.50
2022-08-20T17:53:22.517Z,100285.19
2022-08-20T17:55:58.509Z,100284.38
2022-08-20T17:58:39.733Z,100282.72
2022-08-20T18:01:18.065Z,100282.72
2022-08-20T18:03:44.933Z,100282.72
2022-08-20T18:06:19.577Z,100289.22
2022-08-20T18:09:04.738Z,100286.41
2022-08-20T18:11:43.133Z,100283.50
2022-08-20T18:14:15.802Z,100281.06
2022-08-20T18:16:56.643Z,100287.94
2022-08-20T18:19:48.220Z,100282.22
2022-08-20T18:22:28.186Z,100291.47
2022-08-20T18:25:18.063Z,100287.84
2022-08-20T18:27:51.398Z,100285.41
2022-08-20T18:30:22.320Z,100292.31
2022-08-20T18:32:59.196Z,100287.41
2022-08-20T18:35:35.143Z,100280.16
2022-08-20T18:38:16.578Z,100291.88
2022-08-20T18:40:45.650Z,100291.00
2022-08-20T18:43:25.760Z,100282.09
2022-08-20T18:45:53.035Z,100287.34
2022-08-20T18:48:24.818Z,100290.16
2022-08-20T18:50:56.267Z,100285.69
2022-08-20T18:53:33.847Z,100284.03
2022-08-20T18:56:15.582Z,100286.41
2022-08-20T18:59:06.402Z,100287.19
2022-08-20T19:01:37.318Z,100291.22
2022-08-20T19:04:17.397Z,100300.91
2022-08-20T19:06:49.437Z,100294.44
2022-08-20T19:09:49.924Z,100292.44
2022-08-20T19:12:54.847Z,100296.41
2022-08-20T19:15:22.906Z,100294.34
2022-08-20T19:18:06.043Z,100308.09
2022-08-20T19:20:36.685Z,100299.19
2022-08-20T19:23:14.203Z,100304.84
2022-08-20T19:25:55.666Z,100291.00
2022-08-20T19:28:29.419Z,100297.44
2022-08-20T19:30:57.169Z,100297.41
2022-08-20T19:33:31.131Z,100291.69
2022-08-20T19:36:12.835Z,100302.56
2022-08-20T19:38:45.263Z,100292.34
2022-08-20T19:41:17.881Z,100302.84
2022-08-20T19:43:59.203Z,100301.53
2022-08-20T19:46:46.091Z,100290.59
2022-08-20T19:49:43.063Z,100303.44
2022-08-20T19:52:42.642Z,100293.69
2022-08-20T19:55:20.481Z,100292.00
2022-08-20T19:57:52.682Z,100292.75
2022-08-20T20:00:20.692Z,100294.34
2022-08-20T20:02:47.530Z,100291.91
2022-08-20T20:05:14.737Z,100294.28
2022-08-20T20:07:44.203Z,100299.13
2022-08-20T20:10:38.810Z,100297.44
2022-08-20T20:13:14.894Z,100292.56
2022-08-20T20:15:43.308Z,100287.56
2022-08-20T20:18:11.780Z,100295.66
2022-08-20T20:20:57.596Z,100297.66
2022-08-20T20:23:38.824Z,100303.69
2022-08-20T20:26:17.310Z,100298.00
2022-08-20T20:28:54.966Z,100306.09
2022-08-20T20:31:28.831Z,100299.63
2022-08-20T20:33:58.875Z,100300.00
2022-08-20T20:36:37.066Z,100298.78
2022-08-20T20:39:14.151Z,100303.63
2022-08-20T20:41:52.271Z,100304.44
2022-08-20T20:44:22.973Z,100306.00
2022-08-20T20:46:53.627Z,100301.56
2022-08-20T20:49:33.525Z,100305.19
2022-08-20T20:52:15.003Z,100291.44
2022-08-20T20:54:45.055Z,100286.16
2022-08-20T20:57:18.015Z,100297.91
2022-08-20T20:59:48.468Z,100300.28
2022-08-20T21:02:19.582Z,100290.19
2022-08-20T21:04:48.875Z,100295.41
2022-08-20T21:07:22.566Z,100290.97
2022-08-20T21:09:52.025Z,100288.13
2022-08-20T21:12:20.277Z,100298.22
2022-08-20T21:14:47.164Z,100299.88
2022-08-20T21:17:20.940Z,100299.50
2022-08-20T21:19:51.707Z,100297.09
2022-08-20T21:22:19.724Z,100306.78
2022-08-20T21:24:48.596Z,100311.22
2022-08-20T21:27:15.960Z,100298.28
2022-08-20T21:29:42.732Z,100314.41
2022-08-20T21:32:12.408Z,100297.06
2022-08-20T21:34:39.838Z,100312.78
2022-08-20T21:37:06.702Z,100298.22
2022-08-20T21:39:33.600Z,100298.59
2022-08-20T21:42:03.530Z,100306.78
2022-08-20T21:44:31.821Z,100306.31
2022-08-20T21:47:00.080Z,100298.66
2022-08-20T21:49:28.657Z,100297.47
2022-08-20T21:51:56.526Z,100311.59
2022-08-20T21:54:23.821Z,100298.66
2022-08-20T21:57:05.584Z,100297.84
2022-08-20T21:59:34.168Z,100283.69
2022-08-20T22:02:01.446Z,100301.03
2022-08-20T22:04:31.162Z,100285.31
2022-08-20T22:07:00.540Z,100298.97
2022-08-20T22:09:28.416Z,100303.44
2022-08-20T22:11:57.507Z,100290.88
2022-08-20T22:14:28.974Z,100302.56
2022-08-20T22:16:55.869Z,100299.31
2022-08-20T22:19:22.675Z,100298.50
2022-08-20T22:21:50.527Z,100300.06
2022-08-20T22:24:17.519Z,100298.41
2022-08-20T22:26:44.498Z,100288.69
2022-08-20T22:29:12.363Z,100295.97
2022-08-20T22:31:42.656Z,100293.53
2022-08-20T22:34:12.851Z,100293.53
2022-08-20T22:36:42.335Z,100291.03
2022-08-20T22:39:09.567Z,100284.94
2022-08-20T22:41:36.762Z,100280.41
2022-08-20T22:44:07.896Z,100282.00
2022-08-20T22:46:37.888Z,100288.38
2022-08-20T22:49:09.372Z,100293.59
2022-08-20T22:51:38.762Z,100282.22
2022-08-20T22:54:09.076Z,100281.03
2022-08-20T22:56:36.283Z,100272.13
2022-08-20T22:59:05.116Z,100281.41
2022-08-20T23:01:32.067Z,100268.06
2022-08-20T23:04:09.908Z,100271.25
2022-08-20T23:06:37.034Z,100273.53
2022-08-20T23:09:04.356Z,100265.41
2022-08-20T23:11:31.984Z,100274.63
2022-08-20T23:13:58.783Z,100267.66
2022-08-20T23:16:25.977Z,100274.84
2022-08-20T23:18:53.270Z,100278.03
2022-08-20T23:21:20.071Z,100264.75
2022-08-20T23:23:47.559Z,100267.56
2022-08-20T23:26:21.439Z,100268.81
2022-08-20T23:28:48.489Z,100273.22
2022-08-20T23:31:15.979Z,100272.75
2022-08-20T23:33:44.807Z,100274.78
2022-08-20T23:36:12.515Z,100280.31
2022-08-20T23:38:39.439Z,100271.78
2022-08-20T23:41:06.443Z,100283.44
2022-08-20T23:43:33.544Z,100267.25
2022-08-20T23:46:04.388Z,100276.09
2022-08-20T23:48:31.772Z,100276.38
2022-08-20T23:50:58.631Z,100278.78
2022-08-20T23:53:25.580Z,100279.50
2022-08-20T23:55:52.443Z,100271.78
2022-08-20T23:58:19.320Z,100279.88
